DLH265 EDDM-LOWI
Flight info
| Callsign | DLH265 |
|---|---|
| Flight time | 0h 32m |
| Altitude | 15000 |
| Route | TURBU7S/26L TURBU Y107 RTT RTT1B |
| Aircraft | A320/M-SDE3FGHIRWY/LB1 |
Departure
| Time | 2026-05-05 13:31 |
|---|---|
| Airport | Munich Airport (EDDM) |
Arrival
| Time | 2026-05-05 14:03 |
|---|---|
| Airport | Innsbruck Airport (LOWI) |
| Time | Latitude | Longitude | Altitude | Speed | Heading |
|---|---|---|---|---|---|
| 2026-05-05 13:08 | 48.35740 | 11.79255 | 1486 ft | 0 kts | 263° |
| 2026-05-05 13:24 | 48.35741 | 11.79268 | 1471 ft | 4 kts | 263° |
| 2026-05-05 13:24 | 48.35743 | 11.79309 | 1485 ft | 4 kts | 263° |
| 2026-05-05 13:24 | 48.35746 | 11.79341 | 1485 ft | 3 kts | 263° |
| 2026-05-05 13:25 | 48.35753 | 11.79378 | 1485 ft | 4 kts | 233° |
| 2026-05-05 13:25 | 48.35771 | 11.79398 | 1485 ft | 4 kts | 177° |
| 2026-05-05 13:25 | 48.35793 | 11.79395 | 1485 ft | 1 kts | 173° |
| 2026-05-05 13:27 | 48.35792 | 11.79395 | 1485 ft | 1 kts | 176° |
| 2026-05-05 13:27 | 48.35768 | 11.79399 | 1485 ft | 4 kts | 172° |
| 2026-05-05 13:27 | 48.35722 | 11.79409 | 1473 ft | 10 kts | 172° |
| 2026-05-05 13:28 | 48.35634 | 11.79428 | 1476 ft | 16 kts | 171° |
| 2026-05-05 13:28 | 48.35505 | 11.79444 | 1481 ft | 21 kts | 173° |
| 2026-05-05 13:28 | 48.35340 | 11.79476 | 1476 ft | 26 kts | 173° |
| 2026-05-05 13:28 | 48.35152 | 11.79509 | 1477 ft | 28 kts | 173° |
| 2026-05-05 13:29 | 48.34959 | 11.79542 | 1482 ft | 29 kts | 175° |
| 2026-05-05 13:29 | 48.34777 | 11.79554 | 1485 ft | 26 kts | 184° |
| 2026-05-05 13:29 | 48.34606 | 11.79507 | 1476 ft | 26 kts | 226° |
| 2026-05-05 13:29 | 48.34494 | 11.79289 | 1477 ft | 27 kts | 232° |
| 2026-05-05 13:30 | 48.34386 | 11.79052 | 1475 ft | 28 kts | 240° |
| 2026-05-05 13:30 | 48.34364 | 11.78929 | 1480 ft | 0 kts | 262° |
| 2026-05-05 13:30 | 48.34359 | 11.78871 | 1476 ft | 29 kts | 263° |
| 2026-05-05 13:30 | 48.34302 | 11.78176 | 1485 ft | 101 kts | 263° |
| 2026-05-05 13:31 | 48.34202 | 11.76837 | 1494 ft | 154 kts | 263° |
| 2026-05-05 13:31 | 48.34068 | 11.75165 | 1982 ft | 160 kts | 264° |
| 2026-05-05 13:31 | 48.33942 | 11.73492 | 2662 ft | 163 kts | 264° |
| 2026-05-05 13:31 | 48.33556 | 11.71821 | 3033 ft | 183 kts | 229° |
| 2026-05-05 13:32 | 48.32429 | 11.70847 | 3389 ft | 198 kts | 187° |
| 2026-05-05 13:32 | 48.30992 | 11.70788 | 3725 ft | 218 kts | 180° |
| 2026-05-05 13:32 | 48.29435 | 11.70839 | 4209 ft | 229 kts | 171° |
| 2026-05-05 13:32 | 48.27920 | 11.71633 | 4893 ft | 238 kts | 149° |
| 2026-05-05 13:33 | 48.26474 | 11.73073 | 5315 ft | 261 kts | 145° |
| 2026-05-05 13:33 | 48.24924 | 11.74655 | 5948 ft | 275 kts | 146° |
| 2026-05-05 13:33 | 48.23324 | 11.76284 | 6697 ft | 282 kts | 145° |
| 2026-05-05 13:33 | 48.21704 | 11.77929 | 6943 ft | 280 kts | 145° |
| 2026-05-05 13:34 | 48.20089 | 11.79568 | 7002 ft | 279 kts | 145° |
| 2026-05-05 13:34 | 48.18500 | 11.81153 | 7010 ft | 278 kts | 150° |
| 2026-05-05 13:34 | 48.16731 | 11.82319 | 7017 ft | 278 kts | 161° |
| 2026-05-05 13:34 | 48.14896 | 11.83228 | 7011 ft | 278 kts | 161° |
| 2026-05-05 13:35 | 48.13057 | 11.84141 | 7005 ft | 278 kts | 161° |
| 2026-05-05 13:35 | 48.11221 | 11.85056 | 7009 ft | 278 kts | 161° |
| 2026-05-05 13:35 | 48.09378 | 11.85970 | 7020 ft | 278 kts | 161° |
| 2026-05-05 13:35 | 48.07544 | 11.86883 | 7023 ft | 278 kts | 161° |
| 2026-05-05 13:36 | 48.05707 | 11.87802 | 7008 ft | 278 kts | 161° |
| 2026-05-05 13:36 | 48.03871 | 11.88715 | 7000 ft | 278 kts | 161° |
| 2026-05-05 13:36 | 48.02015 | 11.89630 | 7413 ft | 283 kts | 161° |
| 2026-05-05 13:36 | 48.00152 | 11.90549 | 8415 ft | 282 kts | 161° |
| 2026-05-05 13:37 | 47.98282 | 11.91470 | 9317 ft | 284 kts | 161° |
| 2026-05-05 13:37 | 47.96384 | 11.92404 | 10109 ft | 293 kts | 162° |
| 2026-05-05 13:37 | 47.94375 | 11.93395 | 10413 ft | 316 kts | 162° |
| 2026-05-05 13:37 | 47.92196 | 11.94378 | 10685 ft | 338 kts | 168° |
| 2026-05-05 13:38 | 47.89797 | 11.94836 | 11000 ft | 355 kts | 179° |
| 2026-05-05 13:38 | 47.87300 | 11.94787 | 11650 ft | 362 kts | 181° |
| 2026-05-05 13:38 | 47.84768 | 11.94727 | 12404 ft | 364 kts | 182° |
| 2026-05-05 13:38 | 47.82219 | 11.94679 | 13160 ft | 367 kts | 181° |
| 2026-05-05 13:39 | 47.79655 | 11.94637 | 13849 ft | 370 kts | 181° |
| 2026-05-05 13:39 | 47.77065 | 11.94594 | 14506 ft | 374 kts | 181° |
| 2026-05-05 13:39 | 47.74503 | 11.94550 | 14767 ft | 374 kts | 181° |
| 2026-05-05 13:39 | 47.71833 | 11.94501 | 14845 ft | 387 kts | 181° |
| 2026-05-05 13:40 | 47.69076 | 11.94450 | 14845 ft | 403 kts | 181° |
| 2026-05-05 13:40 | 47.66251 | 11.94398 | 14849 ft | 408 kts | 181° |
| 2026-05-05 13:40 | 47.63397 | 11.94352 | 14854 ft | 410 kts | 181° |
| 2026-05-05 13:40 | 47.60551 | 11.94304 | 14859 ft | 409 kts | 181° |
| 2026-05-05 13:41 | 47.57703 | 11.94257 | 14850 ft | 410 kts | 181° |
| 2026-05-05 13:41 | 47.54899 | 11.94212 | 14700 ft | 405 kts | 181° |
| 2026-05-05 13:41 | 47.52098 | 11.94161 | 14445 ft | 401 kts | 182° |
| 2026-05-05 13:41 | 47.49351 | 11.93578 | 14195 ft | 398 kts | 196° |
| 2026-05-05 13:42 | 47.46819 | 11.91986 | 13945 ft | 395 kts | 211° |
| 2026-05-05 13:42 | 47.44661 | 11.89497 | 13700 ft | 396 kts | 225° |
| 2026-05-05 13:42 | 47.43011 | 11.86247 | 13450 ft | 396 kts | 240° |
| 2026-05-05 13:42 | 47.41988 | 11.82478 | 13203 ft | 397 kts | 254° |
| 2026-05-05 13:43 | 47.41527 | 11.78466 | 12964 ft | 396 kts | 260° |
| 2026-05-05 13:43 | 47.41129 | 11.74443 | 12848 ft | 396 kts | 260° |
| 2026-05-05 13:43 | 47.40724 | 11.70416 | 12873 ft | 397 kts | 260° |
| 2026-05-05 13:43 | 47.40312 | 11.66374 | 12875 ft | 397 kts | 260° |
| 2026-05-05 13:44 | 47.39899 | 11.62352 | 12860 ft | 396 kts | 260° |
| 2026-05-05 13:44 | 47.39879 | 11.62165 | 12860 ft | 396 kts | 260° |
| 2026-05-05 13:44 | 47.39552 | 11.59176 | 12868 ft | 397 kts | 259° |
| 2026-05-05 13:45 | 47.39122 | 11.55152 | 12868 ft | 397 kts | 259° |
| 2026-05-05 13:45 | 47.38705 | 11.51132 | 12864 ft | 396 kts | 260° |
| 2026-05-05 13:45 | 47.38293 | 11.47101 | 12868 ft | 398 kts | 260° |
| 2026-05-05 13:45 | 47.37876 | 11.43068 | 12873 ft | 398 kts | 260° |
| 2026-05-05 13:46 | 47.37458 | 11.39038 | 12868 ft | 397 kts | 259° |
| 2026-05-05 13:46 | 47.37041 | 11.35014 | 12864 ft | 396 kts | 259° |
| 2026-05-05 13:46 | 47.36620 | 11.30998 | 12870 ft | 398 kts | 259° |
| 2026-05-05 13:46 | 47.36193 | 11.26967 | 12866 ft | 397 kts | 259° |
| 2026-05-05 13:47 | 47.35767 | 11.22954 | 12866 ft | 396 kts | 259° |
| 2026-05-05 13:47 | 47.35333 | 11.18935 | 12849 ft | 396 kts | 259° |
| 2026-05-05 13:47 | 47.34900 | 11.14941 | 12869 ft | 394 kts | 259° |
| 2026-05-05 13:47 | 47.34471 | 11.10941 | 12866 ft | 396 kts | 259° |
| 2026-05-05 13:48 | 47.34045 | 11.06922 | 12873 ft | 396 kts | 259° |
| 2026-05-05 13:48 | 47.33615 | 11.02897 | 12869 ft | 397 kts | 259° |
| 2026-05-05 13:48 | 47.33178 | 10.98883 | 12879 ft | 396 kts | 259° |
| 2026-05-05 13:48 | 47.32742 | 10.94866 | 12877 ft | 396 kts | 259° |
| 2026-05-05 13:49 | 47.32310 | 10.90855 | 12876 ft | 396 kts | 259° |
| 2026-05-05 13:49 | 47.31892 | 10.86977 | 12880 ft | 378 kts | 259° |
| 2026-05-05 13:49 | 47.31486 | 10.83252 | 12883 ft | 347 kts | 259° |
| 2026-05-05 13:49 | 47.31121 | 10.79907 | 12881 ft | 315 kts | 258° |
| 2026-05-05 13:50 | 47.30788 | 10.76867 | 12895 ft | 287 kts | 258° |
| 2026-05-05 13:50 | 47.30482 | 10.74081 | 12900 ft | 266 kts | 258° |
| 2026-05-05 13:50 | 47.30187 | 10.71444 | 12896 ft | 256 kts | 258° |
| 2026-05-05 13:50 | 47.29898 | 10.68882 | 12896 ft | 252 kts | 258° |
| 2026-05-05 13:51 | 47.29612 | 10.66371 | 12899 ft | 251 kts | 258° |
| 2026-05-05 13:51 | 47.29320 | 10.63834 | 12908 ft | 251 kts | 256° |
| 2026-05-05 13:51 | 47.28636 | 10.61533 | 12903 ft | 246 kts | 224° |
| 2026-05-05 13:51 | 47.27175 | 10.60337 | 12905 ft | 244 kts | 188° |
| 2026-05-05 13:52 | 47.25526 | 10.60747 | 12916 ft | 247 kts | 150° |
| 2026-05-05 13:52 | 47.24406 | 10.62568 | 12953 ft | 241 kts | 113° |
| 2026-05-05 13:52 | 47.24307 | 10.65003 | 12936 ft | 245 kts | 74° |
| 2026-05-05 13:52 | 47.25034 | 10.67308 | 12603 ft | 251 kts | 64° |
| 2026-05-05 13:53 | 47.25830 | 10.69576 | 12186 ft | 248 kts | 64° |
| 2026-05-05 13:53 | 47.26621 | 10.71819 | 11810 ft | 245 kts | 64° |
| 2026-05-05 13:53 | 47.27398 | 10.74021 | 11451 ft | 239 kts | 64° |
| 2026-05-05 13:53 | 47.28155 | 10.76156 | 11082 ft | 231 kts | 64° |
| 2026-05-05 13:54 | 47.28887 | 10.78215 | 10752 ft | 222 kts | 64° |
| 2026-05-05 13:54 | 47.29576 | 10.80180 | 10412 ft | 210 kts | 68° |
| 2026-05-05 13:54 | 47.29850 | 10.82187 | 10175 ft | 192 kts | 88° |
| 2026-05-05 13:54 | 47.29944 | 10.84085 | 9951 ft | 181 kts | 88° |
| 2026-05-05 13:55 | 47.30034 | 10.85903 | 9675 ft | 175 kts | 88° |
| 2026-05-05 13:55 | 47.30119 | 10.87643 | 9398 ft | 170 kts | 88° |
| 2026-05-05 13:55 | 47.30201 | 10.89346 | 9138 ft | 164 kts | 89° |
| 2026-05-05 13:55 | 47.30282 | 10.91001 | 8873 ft | 161 kts | 88° |
| 2026-05-05 13:56 | 47.30362 | 10.92644 | 8619 ft | 160 kts | 88° |
| 2026-05-05 13:56 | 47.30440 | 10.94275 | 8362 ft | 159 kts | 88° |
| 2026-05-05 13:56 | 47.30517 | 10.95894 | 8102 ft | 158 kts | 88° |
| 2026-05-05 13:56 | 47.30593 | 10.97510 | 7854 ft | 158 kts | 88° |
| 2026-05-05 13:57 | 47.30670 | 10.99125 | 7598 ft | 157 kts | 88° |
| 2026-05-05 13:57 | 47.30747 | 11.00725 | 7341 ft | 156 kts | 88° |
| 2026-05-05 13:57 | 47.30824 | 11.02316 | 7097 ft | 155 kts | 88° |
| 2026-05-05 13:57 | 47.30876 | 11.03386 | 6937 ft | 155 kts | 87° |
| 2026-05-05 13:58 | 47.30953 | 11.04946 | 6690 ft | 154 kts | 87° |
| 2026-05-05 13:58 | 47.30959 | 11.06521 | 6443 ft | 153 kts | 97° |
| 2026-05-05 13:58 | 47.30734 | 11.08041 | 6195 ft | 152 kts | 110° |
| 2026-05-05 13:58 | 47.30324 | 11.09469 | 5946 ft | 151 kts | 116° |
| 2026-05-05 13:59 | 47.29408 | 11.12237 | 5463 ft | 148 kts | 117° |
| 2026-05-05 13:59 | 47.28954 | 11.13589 | 5234 ft | 146 kts | 117° |
| 2026-05-05 14:00 | 47.28063 | 11.16268 | 4764 ft | 146 kts | 116° |
| 2026-05-05 14:00 | 47.27619 | 11.17616 | 4524 ft | 147 kts | 116° |
| 2026-05-05 14:00 | 47.27169 | 11.18981 | 4299 ft | 147 kts | 117° |
| 2026-05-05 14:00 | 47.26734 | 11.20298 | 4071 ft | 140 kts | 116° |
| 2026-05-05 14:01 | 47.26308 | 11.21588 | 3836 ft | 140 kts | 116° |
| 2026-05-05 14:01 | 47.25889 | 11.22858 | 3613 ft | 139 kts | 115° |
| 2026-05-05 14:01 | 47.25467 | 11.24140 | 3390 ft | 139 kts | 114° |
| 2026-05-05 14:01 | 47.25207 | 11.25506 | 3195 ft | 142 kts | 98° |
| 2026-05-05 14:02 | 47.25218 | 11.27013 | 2914 ft | 150 kts | 84° |
| 2026-05-05 14:02 | 47.25386 | 11.28509 | 2662 ft | 145 kts | 82° |
| 2026-05-05 14:02 | 47.25542 | 11.29936 | 2400 ft | 136 kts | 84° |
| 2026-05-05 14:02 | 47.25682 | 11.31273 | 2177 ft | 131 kts | 83° |
| 2026-05-05 14:03 | 47.25823 | 11.32611 | 1999 ft | 131 kts | 83° |
| 2026-05-05 14:03 | 47.25964 | 11.33862 | 1897 ft | 102 kts | 81° |
| 2026-05-05 14:03 | 47.26030 | 11.34467 | 1904 ft | 33 kts | 81° |
| 2026-05-05 14:03 | 47.26081 | 11.34913 | 1901 ft | 53 kts | 80° |
| 2026-05-05 14:04 | 47.26082 | 11.35251 | 1904 ft | 27 kts | 146° |
| 2026-05-05 14:04 | 47.25915 | 11.35281 | 1897 ft | 17 kts | 201° |
| 2026-05-05 14:04 | 47.25893 | 11.35194 | 1896 ft | 16 kts | 262° |
| 2026-05-05 14:04 | 47.25874 | 11.35115 | 1904 ft | 2 kts | 210° |
| 2026-05-05 14:05 | 47.25828 | 11.35110 | 1904 ft | 2 kts | 171° |